Time;durP1;ratioP1;P1;durP2;ratioP2;P2;SDS_P1;SDS_P2;PMS_P1;PMS_P2;Temp;Humidity;BMP_temperature;BMP_pressure;BME280_temperature;BME280_humidity;BME280_pressure;Samples;Min_cycle;Max_cycle;Signal;HPM_P1;HPM_P2
2023/07/25 00:02:44;0.00;0.00;0.62;0.00;0.00;0.62;2.17;1.63;;;29.30;29.70;;;;;;2265589;61;20430;-63
2023/07/25 00:05:30;0.00;0.00;0.62;0.00;0.00;0.62;2.43;1.67;;;29.30;29.80;;;;;;2266191;61;20372;-63
2023/07/25 00:08:14;0.00;0.00;0.62;0.00;0.00;0.62;2.00;1.30;;;29.30;29.70;;;;;;2266113;61;20960;-63
2023/07/25 00:10:59;0.00;0.00;0.62;0.00;0.00;0.62;2.60;1.70;;;29.30;29.70;;;;;;2265649;61;20927;-64
2023/07/25 00:13:44;0.00;0.00;0.62;0.00;0.00;0.62;1.97;1.30;;;29.30;29.70;;;;;;2266335;61;20364;-64
2023/07/25 00:16:29;0.00;0.00;0.62;0.00;0.00;0.62;2.07;1.37;;;29.30;29.70;;;;;;2262748;61;20708;-64
2023/07/25 00:19:14;0.00;0.00;0.62;0.00;0.00;0.62;2.73;1.53;;;29.30;29.70;;;;;;2265567;61;20403;-62
2023/07/25 00:22:00;0.00;0.00;0.62;0.00;0.00;0.62;3.07;1.70;;;29.30;29.70;;;;;;2266260;61;20643;-64
2023/07/25 00:24:49;0.00;0.00;0.62;0.00;0.00;0.62;1.80;1.40;;;29.30;29.70;;;;;;2262339;61;20782;-64
2023/07/25 00:27:33;0.00;0.00;0.62;0.00;0.00;0.62;3.30;1.57;;;29.30;29.70;;;;;;2269885;61;20449;-64
2023/07/25 00:30:18;0.00;0.00;0.62;0.00;0.00;0.62;2.20;1.40;;;29.30;29.60;;;;;;2266532;61;20359;-64
2023/07/25 00:33:03;0.00;0.00;0.62;0.00;0.00;0.62;2.00;1.20;;;29.20;29.50;;;;;;2266674;61;20367;-64
2023/07/25 00:35:52;0.00;0.00;0.62;0.00;0.00;0.62;2.30;1.13;;;29.20;29.50;;;;;;2269858;61;20819;-63
2023/07/25 00:38:38;0.00;0.00;0.62;0.00;0.00;0.62;2.20;1.30;;;29.30;29.60;;;;;;2266031;61;20400;-63
2023/07/25 00:41:22;0.00;0.00;0.62;0.00;0.00;0.62;2.20;1.40;;;29.30;29.60;;;;;;2270178;61;20410;-63
2023/07/25 00:44:07;0.00;0.00;0.62;0.00;0.00;0.62;2.10;1.10;;;29.20;29.50;;;;;;2266452;61;20406;-63
2023/07/25 00:46:52;0.00;0.00;0.62;0.00;0.00;0.62;2.40;1.43;;;29.20;29.50;;;;;;2266420;61;20434;-63
2023/07/25 00:49:37;0.00;0.00;0.62;0.00;0.00;0.62;1.80;1.30;;;29.30;29.60;;;;;;2266442;61;20363;-63
2023/07/25 00:52:22;0.00;0.00;0.62;0.00;0.00;0.62;2.80;1.47;;;29.30;29.50;;;;;;2269781;61;20411;-63
2023/07/25 00:55:09;0.00;0.00;0.62;0.00;0.00;0.62;6.43;1.47;;;29.20;29.50;;;;;;2269729;61;20778;-63
2023/07/25 00:57:54;0.00;0.00;0.62;0.00;0.00;0.62;2.20;1.50;;;29.20;29.50;;;;;;2270096;61;20927;-63
2023/07/25 01:00:39;0.00;0.00;0.62;0.00;0.00;0.62;1.83;1.20;;;29.20;29.40;;;;;;2265992;61;20425;-63
2023/07/25 01:03:25;0.00;0.00;0.62;0.00;0.00;0.62;2.53;1.47;;;29.20;29.40;;;;;;2266667;61;20371;-64
2023/07/25 01:06:12;0.00;0.00;0.62;0.00;0.00;0.62;3.10;1.70;;;29.20;29.40;;;;;;2269954;61;20991;-63
2023/07/25 01:08:57;0.00;0.00;0.62;0.00;0.00;0.62;2.10;1.20;;;29.20;29.40;;;;;;2265542;61;20398;-63
2023/07/25 01:11:43;0.00;0.00;0.62;0.00;0.00;0.62;2.73;1.50;;;29.20;29.40;;;;;;2268457;61;20491;-64
2023/07/25 01:14:29;0.00;0.00;0.62;0.00;0.00;0.62;3.97;1.30;;;29.20;29.40;;;;;;2268401;61;20359;-63
2023/07/25 01:17:20;0.00;0.00;0.62;0.00;0.00;0.62;2.30;1.40;;;29.20;29.40;;;;;;2267952;61;20414;-64
2023/07/25 01:20:08;0.00;0.00;0.62;0.00;0.00;0.62;1.80;1.10;;;29.20;29.40;;;;;;2268096;61;20360;-63
2023/07/25 01:22:55;0.00;0.00;0.62;0.00;0.00;0.62;4.73;1.30;;;29.20;29.90;;;;;;2268063;61;20416;-63
2023/07/25 01:25:41;0.00;0.00;0.62;0.00;0.00;0.62;2.00;1.10;;;29.20;29.30;;;;;;2267678;61;20379;-62
2023/07/25 01:28:26;0.00;0.00;0.62;0.00;0.00;0.62;2.90;1.30;;;29.20;29.30;;;;;;2264058;61;21022;-63
2023/07/25 01:31:11;0.00;0.00;0.62;0.00;0.00;0.62;2.37;1.30;;;29.20;29.30;;;;;;2260500;61;20380;-63
2023/07/25 01:33:56;0.00;0.00;0.62;0.00;0.00;0.62;2.30;1.30;;;29.10;29.30;;;;;;2260869;61;20393;-63
2023/07/25 01:36:41;0.00;0.00;0.62;0.00;0.00;0.62;2.97;1.73;;;29.10;29.30;;;;;;2264358;61;20957;-63
2023/07/25 01:39:25;0.00;0.00;0.62;0.00;0.00;0.62;1.97;1.10;;;29.10;29.30;;;;;;2260339;61;20372;-63
2023/07/25 01:42:12;0.00;0.00;0.62;0.00;0.00;0.62;1.93;1.20;;;29.10;29.30;;;;;;2261156;61;20368;-64
2023/07/25 01:44:57;0.00;0.00;0.62;0.00;0.00;0.62;2.10;1.20;;;29.10;29.30;;;;;;2264227;61;20372;-63
2023/07/25 01:47:42;0.00;0.00;0.62;0.00;0.00;0.62;1.90;1.20;;;29.10;29.20;;;;;;2260644;61;20430;-64
2023/07/25 01:50:27;0.00;0.00;0.62;0.00;0.00;0.62;1.63;1.10;;;29.10;29.20;;;;;;2260672;61;20422;-64
2023/07/25 01:53:12;0.00;0.00;0.62;0.00;0.00;0.62;1.87;1.10;;;29.10;29.20;;;;;;2263386;61;20429;-64
2023/07/25 01:55:57;0.00;0.00;0.62;0.00;0.00;0.62;1.90;1.07;;;29.10;29.20;;;;;;2261145;61;20368;-62
2023/07/25 01:58:43;0.00;0.00;0.62;0.00;0.00;0.62;2.37;1.20;;;29.10;29.20;;;;;;2260885;61;20383;-63
2023/07/25 02:01:28;0.00;0.00;0.62;0.00;0.00;0.62;2.63;1.00;;;29.10;29.20;;;;;;2260600;61;20410;-63
2023/07/25 02:04:13;0.00;0.00;0.62;0.00;0.00;0.62;2.20;1.50;;;29.10;29.20;;;;;;2264421;61;20368;-63
2023/07/25 02:06:58;0.00;0.00;0.62;0.00;0.00;0.62;1.60;0.90;;;29.10;29.20;;;;;;2264227;61;20367;-62
2023/07/25 02:09:43;0.00;0.00;0.62;0.00;0.00;0.62;2.33;1.20;;;29.10;29.20;;;;;;2263453;61;20406;-62
2023/07/25 02:12:30;0.00;0.00;0.62;0.00;0.00;0.62;1.80;1.10;;;29.10;29.20;;;;;;2264292;61;20388;-63
2023/07/25 02:15:17;0.00;0.00;0.62;0.00;0.00;0.62;2.27;1.00;;;29.00;29.10;;;;;;2260558;61;20778;-64
2023/07/25 02:18:02;0.00;0.00;0.62;0.00;0.00;0.62;3.33;1.20;;;29.00;29.10;;;;;;2260858;61;20392;-63
2023/07/25 02:20:46;0.00;0.00;0.62;0.00;0.00;0.62;2.13;1.03;;;29.00;29.10;;;;;;2264261;61;20935;-63
2023/07/25 02:23:31;0.00;0.00;0.62;0.00;0.00;0.62;2.43;1.00;;;29.00;29.10;;;;;;2260383;61;20405;-63
2023/07/25 02:26:17;0.00;0.00;0.62;0.00;0.00;0.62;3.63;1.33;;;29.10;29.10;;;;;;2261140;61;20418;-63
2023/07/25 02:29:02;0.00;0.00;0.62;0.00;0.00;0.62;1.97;1.07;;;29.10;29.10;;;;;;2263281;61;20387;-62
2023/07/25 02:31:48;0.00;0.00;0.62;0.00;0.00;0.62;1.70;1.10;;;29.00;29.10;;;;;;2263825;61;20419;-64
2023/07/25 02:34:32;0.00;0.00;0.62;0.00;0.00;0.62;2.63;1.13;;;29.00;29.10;;;;;;2264104;61;20414;-64
2023/07/25 02:37:17;0.00;0.00;0.62;0.00;0.00;0.62;1.70;1.10;;;29.00;29.00;;;;;;2263381;61;20415;-63
2023/07/25 02:40:04;0.00;0.00;0.62;0.00;0.00;0.62;2.20;1.10;;;29.00;29.00;;;;;;2263592;61;20355;-63
2023/07/25 02:42:49;0.00;0.00;0.62;0.00;0.00;0.62;1.87;1.10;;;29.00;29.00;;;;;;2263830;61;20364;-63
2023/07/25 02:45:34;0.00;0.00;0.62;0.00;0.00;0.62;1.80;1.00;;;29.00;29.00;;;;;;2260030;61;20414;-64
2023/07/25 02:48:21;0.00;0.00;0.62;0.00;0.00;0.62;3.00;1.43;;;29.00;29.00;;;;;;2263490;61;20380;-63
2023/07/25 02:51:06;0.00;0.00;0.62;0.00;0.00;0.62;1.70;1.10;;;29.00;29.00;;;;;;2260303;61;20388;-62
2023/07/25 02:53:50;0.00;0.00;0.62;0.00;0.00;0.62;2.03;1.00;;;29.00;29.00;;;;;;2260625;61;20368;-63
2023/07/25 02:56:35;0.00;0.00;0.62;0.00;0.00;0.62;1.83;1.00;;;29.00;29.00;;;;;;2264144;61;20594;-63
2023/07/25 02:59:20;0.00;0.00;0.62;0.00;0.00;0.62;1.57;0.97;;;29.00;29.00;;;;;;2260734;61;20903;-63
2023/07/25 03:02:06;0.00;0.00;0.62;0.00;0.00;0.62;3.00;1.03;;;29.00;29.00;;;;;;2261436;61;20392;-63
2023/07/25 03:04:52;0.00;0.00;0.62;0.00;0.00;0.62;2.17;1.00;;;28.90;28.90;;;;;;2264678;61;20434;-65
2023/07/25 03:07:38;0.00;0.00;0.62;0.00;0.00;0.62;1.70;1.30;;;29.00;29.00;;;;;;2264333;61;20419;-63
2023/07/25 03:10:23;0.00;0.00;0.62;0.00;0.00;0.62;2.37;1.33;;;29.00;29.00;;;;;;2258325;61;20773;-62
2023/07/25 03:13:08;0.00;0.00;0.62;0.00;0.00;0.62;2.23;1.20;;;29.00;29.00;;;;;;2261672;61;20378;-62
2023/07/25 03:15:53;0.00;0.00;0.62;0.00;0.00;0.62;2.20;1.20;;;29.00;29.00;;;;;;2261491;61;20410;-62
2023/07/25 03:18:38;0.00;0.00;0.62;0.00;0.00;0.62;1.70;1.00;;;28.90;28.90;;;;;;2264077;61;20372;-63
2023/07/25 03:21:24;0.00;0.00;0.62;0.00;0.00;0.62;1.60;1.10;;;28.90;28.90;;;;;;2264481;61;20364;-63
2023/07/25 03:24:09;0.00;0.00;0.62;0.00;0.00;0.62;1.80;1.20;;;29.00;29.00;;;;;;2264639;61;20395;-63
2023/07/25 03:26:53;0.00;0.00;0.62;0.00;0.00;0.62;2.33;0.97;;;28.90;28.90;;;;;;2267469;61;20386;-64
2023/07/25 03:29:38;0.00;0.00;0.62;0.00;0.00;0.62;2.80;1.23;;;28.90;28.90;;;;;;2268114;61;20444;-64
2023/07/25 03:32:23;0.00;0.00;0.62;0.00;0.00;0.62;2.17;1.00;;;28.90;28.90;;;;;;2265310;61;20402;-62
2023/07/25 03:35:08;0.00;0.00;0.62;0.00;0.00;0.62;1.60;1.00;;;28.90;28.90;;;;;;2268694;61;20356;-61
2023/07/25 03:37:54;0.00;0.00;0.62;0.00;0.00;0.62;1.80;1.00;;;28.90;28.90;;;;;;2268234;61;20391;-63
2023/07/25 03:40:39;0.00;0.00;0.62;0.00;0.00;0.62;1.70;1.03;;;28.90;28.90;;;;;;2268494;61;20382;-63
2023/07/25 03:43:24;0.00;0.00;0.62;0.00;0.00;0.62;2.90;1.30;;;28.90;28.90;;;;;;2265125;61;20403;-63
2023/07/25 03:46:09;0.00;0.00;0.62;0.00;0.00;0.62;2.27;1.27;;;28.90;28.90;;;;;;2265441;61;20379;-63
2023/07/25 03:48:54;0.00;0.00;0.62;0.00;0.00;0.62;1.80;1.10;;;28.90;28.90;;;;;;2265099;61;20386;-64
2023/07/25 03:51:39;0.00;0.00;0.62;0.00;0.00;0.62;2.20;1.23;;;28.90;28.90;;;;;;2265008;61;20395;-63
2023/07/25 03:54:25;0.00;0.00;0.62;0.00;0.00;0.62;2.17;1.10;;;28.90;28.90;;;;;;2265370;61;20363;-64
2023/07/25 03:57:10;0.00;0.00;0.62;0.00;0.00;0.62;2.53;1.20;;;28.90;28.90;;;;;;2265495;61;20393;-62
2023/07/25 03:59:54;0.00;0.00;0.62;0.00;0.00;0.62;2.03;1.20;;;28.90;28.80;;;;;;2267991;61;20382;-63
2023/07/25 04:02:39;0.00;0.00;0.62;0.00;0.00;0.62;2.43;1.30;;;28.90;28.80;;;;;;2268661;61;20355;-63
2023/07/25 04:05:24;0.00;0.00;0.62;0.00;0.00;0.62;3.87;1.20;;;28.90;28.90;;;;;;2262610;61;20367;-63
2023/07/25 04:08:09;0.00;0.00;0.62;0.00;0.00;0.62;2.27;1.20;;;28.90;28.80;;;;;;2268461;61;20911;-63
2023/07/25 04:10:55;0.00;0.00;0.62;0.00;0.00;0.62;2.13;1.20;;;28.90;28.80;;;;;;2265296;61;20481;-63
2023/07/25 04:13:40;0.00;0.00;0.62;0.00;0.00;0.62;2.00;1.00;;;28.90;28.80;;;;;;2268287;61;20370;-64
2023/07/25 04:16:25;0.00;0.00;0.62;0.00;0.00;0.62;2.33;1.30;;;28.90;28.80;;;;;;2268601;61;20379;-62
2023/07/25 04:19:09;0.00;0.00;0.62;0.00;0.00;0.62;1.87;1.10;;;28.90;28.80;;;;;;2264959;61;20463;-63
2023/07/25 04:21:55;0.00;0.00;0.62;0.00;0.00;0.62;1.60;1.00;;;28.90;28.80;;;;;;2264975;61;20363;-64
2023/07/25 04:24:39;0.00;0.00;0.62;0.00;0.00;0.62;2.07;1.03;;;28.90;28.80;;;;;;2268403;61;20891;-64
2023/07/25 04:27:25;0.00;0.00;0.62;0.00;0.00;0.62;1.93;1.37;;;28.90;28.80;;;;;;2264596;61;20533;-63
2023/07/25 04:30:11;0.00;0.00;0.62;0.00;0.00;0.62;1.73;1.30;;;28.90;28.80;;;;;;2263694;61;20368;-63
2023/07/25 04:32:55;0.00;0.00;0.62;0.00;0.00;0.62;2.07;1.10;;;28.90;28.80;;;;;;2264484;61;20422;-64
2023/07/25 04:35:44;0.00;0.00;0.62;0.00;0.00;0.62;2.90;1.20;;;28.90;28.80;;;;;;2260982;61;20364;-63
2023/07/25 04:38:29;0.00;0.00;0.62;0.00;0.00;0.62;2.00;1.30;;;28.80;28.80;;;;;;2264112;61;20442;-64
2023/07/25 04:41:14;0.00;0.00;0.62;0.00;0.00;0.62;2.97;1.03;;;28.90;28.80;;;;;;2264366;61;20368;-64
2023/07/25 04:44:00;0.00;0.00;0.62;0.00;0.00;0.62;2.63;1.50;;;28.90;28.80;;;;;;2263865;61;20357;-62
2023/07/25 04:46:45;0.00;0.00;0.62;0.00;0.00;0.62;2.47;1.20;;;28.90;28.80;;;;;;2264498;61;20364;-63
2023/07/25 04:49:30;0.00;0.00;0.62;0.00;0.00;0.62;2.17;1.60;;;28.80;28.70;;;;;;2260787;61;20363;-65
2023/07/25 04:52:15;0.00;0.00;0.62;0.00;0.00;0.62;2.70;1.20;;;28.90;28.80;;;;;;2264186;61;20431;-63
2023/07/25 04:55:00;0.00;0.00;0.62;0.00;0.00;0.62;2.00;1.40;;;28.90;28.80;;;;;;2264637;61;20376;-63
2023/07/25 04:57:45;0.00;0.00;0.62;0.00;0.00;0.62;2.00;1.60;;;28.90;28.80;;;;;;2264209;61;20438;-64
2023/07/25 05:00:31;0.00;0.00;0.62;0.00;0.00;0.62;2.63;1.60;;;28.90;28.80;;;;;;2260995;61;20440;-62
2023/07/25 05:03:16;0.00;0.00;0.62;0.00;0.00;0.62;1.90;1.30;;;28.80;28.70;;;;;;2261102;61;20441;-64
2023/07/25 05:06:01;0.00;0.00;0.62;0.00;0.00;0.62;3.97;2.20;;;28.90;28.80;;;;;;2264007;61;20407;-64
2023/07/25 05:08:45;0.00;0.00;0.62;0.00;0.00;0.62;2.97;1.80;;;28.80;28.70;;;;;;2263927;61;21040;-62
2023/07/25 05:11:30;0.00;0.00;0.62;0.00;0.00;0.62;3.07;2.00;;;28.80;28.70;;;;;;2264196;61;20931;-63
2023/07/25 05:14:15;0.00;0.00;0.62;0.00;0.00;0.62;3.10;1.40;;;28.80;28.70;;;;;;2264145;61;20402;-63
2023/07/25 05:17:01;0.00;0.00;0.62;0.00;0.00;0.62;2.60;2.00;;;28.80;28.70;;;;;;2264298;61;20459;-64
2023/07/25 05:19:45;0.00;0.00;0.62;0.00;0.00;0.62;4.13;2.33;;;28.80;28.70;;;;;;2263660;61;20368;-63
2023/07/25 05:22:30;0.00;0.00;0.62;0.00;0.00;0.62;2.47;1.73;;;28.80;28.70;;;;;;2264158;61;20360;-63
2023/07/25 05:25:14;0.00;0.00;0.62;0.00;0.00;0.62;2.60;1.50;;;28.80;28.70;;;;;;2264537;61;20478;-62
2023/07/25 05:27:59;0.00;0.00;0.62;0.00;0.00;0.62;3.20;1.90;;;28.80;28.70;;;;;;2263985;61;20383;-63
2023/07/25 05:30:44;0.00;0.00;0.62;0.00;0.00;0.62;2.57;1.87;;;28.80;28.70;;;;;;2264113;61;20372;-64
2023/07/25 05:33:29;0.00;0.00;0.62;0.00;0.00;0.62;3.40;2.00;;;28.80;28.70;;;;;;2264033;61;20980;-64
2023/07/25 05:36:14;0.00;0.00;0.62;0.00;0.00;0.62;2.50;1.90;;;28.80;28.70;;;;;;2263847;61;20416;-63
2023/07/25 05:38:59;0.00;0.00;0.62;0.00;0.00;0.62;2.73;2.00;;;28.80;28.70;;;;;;2263859;61;20430;-70
2023/07/25 05:41:43;0.00;0.00;0.62;0.00;0.00;0.62;3.83;1.90;;;28.80;28.70;;;;;;2263979;61;20360;-62
2023/07/25 05:44:29;0.00;0.00;0.62;0.00;0.00;0.62;3.00;1.93;;;28.80;28.70;;;;;;2264185;61;20360;-63
2023/07/25 05:47:14;0.00;0.00;0.62;0.00;0.00;0.62;2.50;1.80;;;28.80;28.70;;;;;;2263874;61;20472;-63
2023/07/25 05:50:00;0.00;0.00;0.62;0.00;0.00;0.62;3.80;2.07;;;28.80;28.70;;;;;;2263324;61;20371;-64
2023/07/25 05:52:44;0.00;0.00;0.62;0.00;0.00;0.62;3.40;1.87;;;28.80;28.70;;;;;;2263993;61;20402;-62
2023/07/25 05:55:29;0.00;0.00;0.62;0.00;0.00;0.62;3.20;1.90;;;28.80;28.70;;;;;;2264233;61;20392;-63
2023/07/25 05:58:14;0.00;0.00;0.62;0.00;0.00;0.62;5.17;1.83;;;28.80;28.70;;;;;;2263449;61;20376;-63
2023/07/25 06:00:59;0.00;0.00;0.62;0.00;0.00;0.62;2.70;1.70;;;28.80;28.70;;;;;;2263930;61;20367;-62
2023/07/25 06:03:44;0.00;0.00;0.62;0.00;0.00;0.62;2.83;1.90;;;28.80;28.70;;;;;;2263920;61;20363;-62
2023/07/25 06:06:30;0.00;0.00;0.62;0.00;0.00;0.62;2.77;1.77;;;28.80;28.70;;;;;;2264178;61;20395;-63
2023/07/25 06:09:15;0.00;0.00;0.62;0.00;0.00;0.62;3.97;1.87;;;28.80;28.70;;;;;;2263593;61;20406;-62
2023/07/25 06:12:00;0.00;0.00;0.62;0.00;0.00;0.62;3.30;2.00;;;28.80;28.70;;;;;;2263665;61;20445;-63
2023/07/25 06:14:45;0.00;0.00;0.62;0.00;0.00;0.62;2.50;2.17;;;28.80;28.70;;;;;;2263979;61;20411;-63
2023/07/25 06:17:30;0.00;0.00;0.62;0.00;0.00;0.62;2.53;1.70;;;28.80;28.70;;;;;;2264080;61;20422;-64
2023/07/25 06:20:15;0.00;0.00;0.62;0.00;0.00;0.62;2.97;1.77;;;28.80;28.70;;;;;;2263362;61;20449;-64
2023/07/25 06:23:02;0.00;0.00;0.62;0.00;0.00;0.62;2.50;1.63;;;28.80;28.70;;;;;;2264108;61;20363;-64
2023/07/25 06:25:47;0.00;0.00;0.62;0.00;0.00;0.62;2.67;1.63;;;28.80;28.70;;;;;;2265273;61;20702;-63
2023/07/25 06:28:31;0.00;0.00;0.62;0.00;0.00;0.62;2.33;1.60;;;28.80;28.60;;;;;;2267527;61;20429;-64
2023/07/25 06:31:16;0.00;0.00;0.62;0.00;0.00;0.62;2.27;1.50;;;28.80;28.60;;;;;;2268022;61;20391;-63
2023/07/25 06:34:00;0.00;0.00;0.62;0.00;0.00;0.62;3.10;1.40;;;28.80;28.60;;;;;;2268412;61;20363;-62
2023/07/25 06:36:45;0.00;0.00;0.62;0.00;0.00;0.62;2.63;1.50;;;28.80;28.60;;;;;;2268628;61;20476;-62
2023/07/25 06:39:31;0.00;0.00;0.62;0.00;0.00;0.62;2.77;1.90;;;28.80;28.60;;;;;;2268330;61;20444;-64
2023/07/25 06:42:16;0.00;0.00;0.62;0.00;0.00;0.62;2.83;1.73;;;28.80;28.60;;;;;;2268160;61;20358;-63
2023/07/25 06:45:07;0.00;0.00;0.62;0.00;0.00;0.62;3.50;1.73;;;28.80;28.60;;;;;;2265673;61;20432;-63
2023/07/25 06:47:51;0.00;0.00;0.62;0.00;0.00;0.62;2.27;1.60;;;28.80;28.60;;;;;;2265490;61;20513;-64
2023/07/25 06:50:36;0.00;0.00;0.62;0.00;0.00;0.62;3.47;1.77;;;28.80;28.60;;;;;;2268169;61;20830;-64
2023/07/25 06:53:20;0.00;0.00;0.62;0.00;0.00;0.62;2.67;1.80;;;28.80;28.60;;;;;;2268794;61;20406;-64
2023/07/25 06:56:06;0.00;0.00;0.62;0.00;0.00;0.62;2.47;1.70;;;28.80;28.60;;;;;;2265223;61;20363;-64
2023/07/25 06:58:51;0.00;0.00;0.62;0.00;0.00;0.62;2.20;1.20;;;28.80;28.60;;;;;;2268461;61;20437;-63
2023/07/25 07:01:36;0.00;0.00;0.62;0.00;0.00;0.62;2.13;1.40;;;28.80;28.50;;;;;;2268841;61;21027;-63
2023/07/25 07:04:21;0.00;0.00;0.62;0.00;0.00;0.62;2.00;1.40;;;28.80;28.50;;;;;;2268337;61;20998;-63
2023/07/25 07:07:06;0.00;0.00;0.62;0.00;0.00;0.62;2.00;1.63;;;28.80;29.10;;;;;;2265557;61;20362;-64
2023/07/25 07:09:51;0.00;0.00;0.62;0.00;0.00;0.62;3.30;2.30;;;28.80;28.60;;;;;;2268183;61;20382;-63
2023/07/25 07:12:45;0.00;0.00;0.62;0.00;0.00;0.62;4.20;2.23;;;28.80;28.60;;;;;;2268373;61;20394;-64
2023/07/25 07:15:30;0.00;0.00;0.62;0.00;0.00;0.62;2.80;1.80;;;28.80;28.50;;;;;;2265552;61;20363;-63
2023/07/25 07:18:15;0.00;0.00;0.62;0.00;0.00;0.62;3.37;2.20;;;28.80;28.60;;;;;;2264962;61;20382;-63
2023/07/25 07:21:00;0.00;0.00;0.62;0.00;0.00;0.62;1.93;1.33;;;28.80;28.60;;;;;;2268850;61;20982;-64
2023/07/25 07:23:44;0.00;0.00;0.62;0.00;0.00;0.62;3.47;1.70;;;28.80;28.50;;;;;;2268889;61;20367;-62
2023/07/25 07:26:29;0.00;0.00;0.62;0.00;0.00;0.62;2.53;2.00;;;28.80;28.60;;;;;;2265986;61;20888;-64
2023/07/25 07:29:15;0.00;0.00;0.62;0.00;0.00;0.62;3.70;2.00;;;28.80;28.60;;;;;;2264377;61;20651;-63
2023/07/25 07:32:02;0.00;0.00;0.62;0.00;0.00;0.62;2.83;1.80;;;28.80;28.60;;;;;;2264578;61;20463;-63
2023/07/25 07:34:47;0.00;0.00;0.62;0.00;0.00;0.62;2.80;1.80;;;28.80;28.60;;;;;;2264162;61;20407;-63
2023/07/25 07:37:32;0.00;0.00;0.62;0.00;0.00;0.62;2.27;1.73;;;28.80;28.60;;;;;;2264379;61;20470;-63
2023/07/25 07:40:17;0.00;0.00;0.62;0.00;0.00;0.62;1.90;1.40;;;28.80;28.60;;;;;;2263976;61;20368;-65
2023/07/25 07:43:02;0.00;0.00;0.62;0.00;0.00;0.62;2.50;1.80;;;28.80;28.50;;;;;;2260931;61;20356;-63
2023/07/25 07:45:48;0.00;0.00;0.62;0.00;0.00;0.62;3.77;1.70;;;28.80;28.50;;;;;;2264432;61;20364;-61
2023/07/25 07:48:34;0.00;0.00;0.62;0.00;0.00;0.62;2.87;1.73;;;28.80;28.50;;;;;;2263867;61;20538;-61
2023/07/25 07:51:18;0.00;0.00;0.62;0.00;0.00;0.62;4.00;2.00;;;28.80;28.50;;;;;;2265503;61;20387;-63
2023/07/25 07:54:03;0.00;0.00;0.62;0.00;0.00;0.62;3.07;1.97;;;28.80;28.60;;;;;;2266416;61;20446;-63
2023/07/25 07:56:47;0.00;0.00;0.62;0.00;0.00;0.62;2.60;1.90;;;28.80;28.50;;;;;;2265924;61;20448;-63
2023/07/25 07:59:32;0.00;0.00;0.62;0.00;0.00;0.62;3.13;1.83;;;28.80;28.50;;;;;;2265911;61;20418;-63
2023/07/25 08:02:18;0.00;0.00;0.62;0.00;0.00;0.62;3.10;2.43;;;28.80;28.50;;;;;;2266059;61;20355;-63
2023/07/25 08:05:03;0.00;0.00;0.62;0.00;0.00;0.62;2.80;1.97;;;28.80;28.50;;;;;;2265899;61;20503;-63
2023/07/25 08:07:48;0.00;0.00;0.62;0.00;0.00;0.62;4.40;2.00;;;28.80;28.50;;;;;;2265448;61;20413;-63
2023/07/25 08:10:32;0.00;0.00;0.62;0.00;0.00;0.62;3.33;2.00;;;28.80;28.50;;;;;;2263464;61;20918;-63
2023/07/25 08:13:17;0.00;0.00;0.62;0.00;0.00;0.62;2.97;2.10;;;28.80;28.60;;;;;;2264418;61;20480;-62
2023/07/25 08:16:01;0.00;0.00;0.62;0.00;0.00;0.62;4.33;2.33;;;28.80;29.10;;;;;;2264560;61;20777;-63
2023/07/25 08:18:48;0.00;0.00;0.62;0.00;0.00;0.62;3.07;1.70;;;28.80;28.50;;;;;;2260541;61;20396;-63
2023/07/25 08:21:33;0.00;0.00;0.62;0.00;0.00;0.62;3.07;2.13;;;28.80;28.50;;;;;;2264621;61;20384;-63
2023/07/25 08:24:18;0.00;0.00;0.62;0.00;0.00;0.62;2.43;1.90;;;28.80;28.50;;;;;;2264034;61;20368;-63
2023/07/25 08:27:02;0.00;0.00;0.62;0.00;0.00;0.62;2.10;1.70;;;28.80;28.50;;;;;;2267145;61;20371;-63
2023/07/25 08:29:49;0.00;0.00;0.62;0.00;0.00;0.62;3.40;2.40;;;28.80;28.50;;;;;;2267802;61;20404;-62
2023/07/25 08:32:34;0.00;0.00;0.62;0.00;0.00;0.62;3.37;1.90;;;28.80;29.10;;;;;;2268447;61;20383;-64
2023/07/25 08:35:20;0.00;0.00;0.62;0.00;0.00;0.62;2.30;1.60;;;28.80;28.80;;;;;;2268399;61;20363;-64
2023/07/25 08:38:04;0.00;0.00;0.62;0.00;0.00;0.62;3.40;2.10;;;28.80;28.50;;;;;;2265408;61;20386;-64
2023/07/25 08:41:02;0.00;0.00;0.62;0.00;0.00;0.62;2.67;2.07;;;28.80;28.50;;;;;;2268125;61;20910;-64
2023/07/25 08:43:49;0.00;0.00;0.62;0.00;0.00;0.62;3.90;2.27;;;28.80;28.50;;;;;;2268315;61;20907;-63
2023/07/25 08:46:35;0.00;0.00;0.62;0.00;0.00;0.62;5.33;2.17;;;28.80;28.50;;;;;;2265152;61;20778;-63
2023/07/25 08:49:23;0.00;0.00;0.62;0.00;0.00;0.62;3.10;2.00;;;28.80;28.50;;;;;;2267695;61;20355;-62
2023/07/25 08:52:12;0.00;0.00;0.62;0.00;0.00;0.62;2.13;1.90;;;28.80;28.50;;;;;;2268318;61;20497;-63
2023/07/25 08:54:56;0.00;0.00;0.62;0.00;0.00;0.62;2.30;1.90;;;28.80;29.00;;;;;;2268061;61;20428;-64
2023/07/25 08:57:44;0.00;0.00;0.62;0.00;0.00;0.62;3.00;2.00;;;28.80;28.50;;;;;;2268245;61;20421;-60
2023/07/25 09:00:30;0.00;0.00;0.62;0.00;0.00;0.62;4.30;2.20;;;28.80;28.40;;;;;;2268295;61;20355;-63
2023/07/25 09:03:15;0.00;0.00;0.62;0.00;0.00;0.62;2.97;1.80;;;28.90;28.50;;;;;;2268012;61;20379;-62
2023/07/25 09:06:03;0.00;0.00;0.62;0.00;0.00;0.62;3.00;1.80;;;28.80;28.40;;;;;;2268498;61;20416;-63
2023/07/25 09:08:49;0.00;0.00;0.62;0.00;0.00;0.62;3.40;2.20;;;28.90;28.50;;;;;;2264690;61;20405;-64
2023/07/25 09:11:34;0.00;0.00;0.62;0.00;0.00;0.62;5.50;2.00;;;28.90;28.50;;;;;;2264821;61;20930;-64
2023/07/25 09:14:19;0.00;0.00;0.62;0.00;0.00;0.62;2.97;1.57;;;28.80;28.40;;;;;;2268429;61;20363;-63
2023/07/25 09:17:05;0.00;0.00;0.62;0.00;0.00;0.62;2.47;1.73;;;28.90;28.50;;;;;;2267992;61;20748;-62
2023/07/25 09:19:50;0.00;0.00;0.62;0.00;0.00;0.62;2.27;1.70;;;28.90;28.50;;;;;;2264739;61;20484;-64
2023/07/25 09:22:35;0.00;0.00;0.62;0.00;0.00;0.62;2.33;1.87;;;28.80;28.40;;;;;;2268280;61;20772;-61
2023/07/25 09:25:21;0.00;0.00;0.62;0.00;0.00;0.62;2.97;2.03;;;28.90;28.40;;;;;;2267637;61;20367;-63
2023/07/25 09:28:06;0.00;0.00;0.62;0.00;0.00;0.62;2.73;1.70;;;28.90;28.40;;;;;;2261281;61;20395;-63
2023/07/25 09:30:51;0.00;0.00;0.62;0.00;0.00;0.62;2.43;1.93;;;28.90;28.40;;;;;;2264282;61;20360;-63
2023/07/25 09:33:38;0.00;0.00;0.62;0.00;0.00;0.62;2.60;1.77;;;28.90;28.40;;;;;;2260762;61;20479;-61
2023/07/25 09:36:29;0.00;0.00;0.62;0.00;0.00;0.62;3.23;1.87;;;28.90;28.30;;;;;;2264408;61;20371;-63
2023/07/25 09:39:15;0.00;0.00;0.62;0.00;0.00;0.62;2.33;1.70;;;28.90;28.30;;;;;;2263355;61;20388;-63
2023/07/25 09:42:01;0.00;0.00;0.62;0.00;0.00;0.62;2.87;1.77;;;28.90;28.30;;;;;;2264114;61;20383;-64
2023/07/25 09:44:47;0.00;0.00;0.62;0.00;0.00;0.62;3.60;2.10;;;28.90;28.30;;;;;;2264329;61;20376;-63
2023/07/25 09:47:32;0.00;0.00;0.62;0.00;0.00;0.62;4.10;2.10;;;28.90;28.30;;;;;;2263775;61;20422;-63
2023/07/25 09:50:16;0.00;0.00;0.62;0.00;0.00;0.62;2.83;1.50;;;28.90;28.30;;;;;;2263840;61;20927;-64
2023/07/25 09:53:02;0.00;0.00;0.62;0.00;0.00;0.62;3.37;2.00;;;28.90;28.20;;;;;;2264287;61;20391;-63
2023/07/25 09:55:47;0.00;0.00;0.62;0.00;0.00;0.62;2.83;1.60;;;28.90;28.70;;;;;;2264039;61;20358;-64
2023/07/25 09:58:33;0.00;0.00;0.62;0.00;0.00;0.62;2.63;1.63;;;28.90;28.20;;;;;;2260447;61;20806;-63
2023/07/25 10:01:19;0.00;0.00;0.62;0.00;0.00;0.62;5.53;2.10;;;28.90;28.20;;;;;;2263849;61;20431;-65
2023/07/25 10:04:06;0.00;0.00;0.62;0.00;0.00;0.62;2.00;1.50;;;28.90;28.20;;;;;;2261149;61;20896;-66
2023/07/25 10:06:52;0.00;0.00;0.62;0.00;0.00;0.62;2.43;1.67;;;28.90;28.20;;;;;;2260884;61;20379;-63
2023/07/25 10:09:38;0.00;0.00;0.62;0.00;0.00;0.62;4.30;1.83;;;28.90;28.10;;;;;;2263067;61;20410;-64
2023/07/25 10:12:23;0.00;0.00;0.62;0.00;0.00;0.62;2.90;2.00;;;28.90;28.10;;;;;;2264162;61;20403;-63
2023/07/25 10:15:12;0.00;0.00;0.62;0.00;0.00;0.62;2.27;1.50;;;28.90;28.10;;;;;;2264094;61;20918;-64
2023/07/25 10:18:02;0.00;0.00;0.62;0.00;0.00;0.62;2.30;1.80;;;29.00;28.20;;;;;;2263968;61;20387;-62
2023/07/25 10:20:48;0.00;0.00;0.62;0.00;0.00;0.62;2.63;1.67;;;28.90;28.10;;;;;;2264321;61;20357;-64
2023/07/25 10:23:37;0.00;0.00;0.62;0.00;0.00;0.62;1.93;1.50;;;29.00;28.20;;;;;;2260156;61;20357;-62
2023/07/25 10:26:21;0.00;0.00;0.62;0.00;0.00;0.62;2.87;2.20;;;28.90;28.10;;;;;;2260963;61;20772;-62
2023/07/25 10:29:37;0.00;0.00;0.62;0.00;0.00;0.62;2.67;1.60;;;29.00;28.10;;;;;;2264030;61;20399;-62
2023/07/25 10:32:43;0.00;0.00;0.62;0.00;0.00;0.62;3.10;1.50;;;28.90;28.10;;;;;;2267271;61;20441;-63
2023/07/25 10:35:42;0.00;0.00;0.62;0.00;0.00;0.62;2.33;1.50;;;29.00;28.10;;;;;;2264600;61;20919;-62
2023/07/25 10:38:32;0.00;0.00;0.62;0.00;0.00;0.62;2.13;1.43;;;29.00;28.10;;;;;;2267095;61;20424;-63
2023/07/25 10:41:17;0.00;0.00;0.62;0.00;0.00;0.62;2.10;1.53;;;29.00;28.00;;;;;;2268121;61;20371;-62
2023/07/25 10:44:02;0.00;0.00;0.62;0.00;0.00;0.62;1.83;1.40;;;29.00;28.00;;;;;;2268027;61;20383;-62
2023/07/25 10:46:47;0.00;0.00;0.62;0.00;0.00;0.62;2.40;1.60;;;29.00;28.00;;;;;;2267659;61;20359;-62
2023/07/25 10:49:54;0.00;0.00;0.62;0.00;0.00;0.62;2.40;1.80;;;29.00;28.00;;;;;;2267505;61;20363;-62
2023/07/25 10:52:42;0.00;0.00;0.62;0.00;0.00;0.62;2.20;1.70;;;29.00;28.00;;;;;;2267505;61;20391;-63
2023/07/25 10:55:28;0.00;0.00;0.62;0.00;0.00;0.62;3.80;1.80;;;29.00;28.00;;;;;;2267877;61;20359;-63